sensor_id;sensor_type;location;lat;lon;timestamp;pressure;altitude;pressure_sealevel;temperature
41654;BMP280;30790;52.030;7.110;2022-11-20T00:01:09;100560.72;;;19.71
41654;BMP280;30790;52.030;7.110;2022-11-20T00:03:35;100559.13;;;19.58
41654;BMP280;30790;52.030;7.110;2022-11-20T00:06:02;100557.47;;;19.57
41654;BMP280;30790;52.030;7.110;2022-11-20T00:08:28;100558.19;;;19.53
41654;BMP280;30790;52.030;7.110;2022-11-20T00:10:54;100542.09;;;19.51
41654;BMP280;30790;52.030;7.110;2022-11-20T00:13:19;100553.94;;;19.57
41654;BMP280;30790;52.030;7.110;2022-11-20T00:15:44;100565.72;;;19.62
41654;BMP280;30790;52.030;7.110;2022-11-20T00:18:09;100564.50;;;19.53
41654;BMP280;30790;52.030;7.110;2022-11-20T00:20:35;100559.78;;;19.65
41654;BMP280;30790;52.030;7.110;2022-11-20T00:23:00;100543.75;;;19.52
41654;BMP280;30790;52.030;7.110;2022-11-20T00:25:25;100567.06;;;19.60
41654;BMP280;30790;52.030;7.110;2022-11-20T00:27:51;100569.78;;;19.60
41654;BMP280;30790;52.030;7.110;2022-11-20T00:30:16;100562.09;;;19.57
41654;BMP280;30790;52.030;7.110;2022-11-20T00:32:41;100561.53;;;19.55
41654;BMP280;30790;52.030;7.110;2022-11-20T00:35:07;100561.13;;;19.63
41654;BMP280;30790;52.030;7.110;2022-11-20T00:37:32;100564.56;;;19.58
41654;BMP280;30790;52.030;7.110;2022-11-20T00:39:57;100557.47;;;19.57
41654;BMP280;30790;52.030;7.110;2022-11-20T00:42:22;100553.69;;;19.58
41654;BMP280;30790;52.030;7.110;2022-11-20T00:44:48;100565.41;;;19.59
41654;BMP280;30790;52.030;7.110;2022-11-20T00:47:13;100558.78;;;19.55
41654;BMP280;30790;52.030;7.110;2022-11-20T00:49:38;100550.50;;;19.50
41654;BMP280;30790;52.030;7.110;2022-11-20T00:52:04;100554.63;;;19.52
41654;BMP280;30790;52.030;7.110;2022-11-20T00:54:29;100545.66;;;19.52
41654;BMP280;30790;52.030;7.110;2022-11-20T00:56:54;100537.97;;;19.49
41654;BMP280;30790;52.030;7.110;2022-11-20T00:59:19;100544.47;;;19.48
41654;BMP280;30790;52.030;7.110;2022-11-20T01:01:45;100537.84;;;19.55
41654;BMP280;30790;52.030;7.110;2022-11-20T01:04:10;100539.28;;;19.46
41654;BMP280;30790;52.030;7.110;2022-11-20T01:06:37;100538.31;;;19.52
41654;BMP280;30790;52.030;7.110;2022-11-20T01:09:06;100548.38;;;19.52
41654;BMP280;30790;52.030;7.110;2022-11-20T01:11:35;100534.66;;;19.47
41654;BMP280;30790;52.030;7.110;2022-11-20T01:14:03;100545.44;;;19.53
41654;BMP280;30790;52.030;7.110;2022-11-20T01:16:32;100537.63;;;19.45
41654;BMP280;30790;52.030;7.110;2022-11-20T01:19:00;100540.19;;;19.52
41654;BMP280;30790;52.030;7.110;2022-11-20T01:21:38;100539.88;;;19.48
41654;BMP280;30790;52.030;7.110;2022-11-20T01:24:05;100537.72;;;19.50
41654;BMP280;30790;52.030;7.110;2022-11-20T01:26:35;100530.88;;;19.48
41654;BMP280;30790;52.030;7.110;2022-11-20T01:29:02;100517.50;;;19.46
41654;BMP280;30790;52.030;7.110;2022-11-20T01:31:30;100511.69;;;19.42
41654;BMP280;30790;52.030;7.110;2022-11-20T01:33:57;100516.06;;;19.43
41654;BMP280;30790;52.030;7.110;2022-11-20T01:36:25;100511.13;;;19.40
41654;BMP280;30790;52.030;7.110;2022-11-20T01:38:51;100512.78;;;19.41
41654;BMP280;30790;52.030;7.110;2022-11-20T01:41:17;100502.47;;;19.43
41654;BMP280;30790;52.030;7.110;2022-11-20T01:44:02;100512.78;;;19.41
41654;BMP280;30790;52.030;7.110;2022-11-20T01:46:28;100507.81;;;19.38
41654;BMP280;30790;52.030;7.110;2022-11-20T01:49:00;100509.63;;;19.33
41654;BMP280;30790;52.030;7.110;2022-11-20T01:51:39;100508.72;;;19.27
41654;BMP280;30790;52.030;7.110;2022-11-20T01:54:12;100499.22;;;19.30
41654;BMP280;30790;52.030;7.110;2022-11-20T01:56:41;100504.28;;;19.38
41654;BMP280;30790;52.030;7.110;2022-11-20T01:59:10;100497.50;;;19.40
41654;BMP280;30790;52.030;7.110;2022-11-20T02:01:37;100500.31;;;19.29
41654;BMP280;30790;52.030;7.110;2022-11-20T02:04:04;100509.38;;;19.34
41654;BMP280;30790;52.030;7.110;2022-11-20T02:06:59;100505.59;;;19.35
41654;BMP280;30790;52.030;7.110;2022-11-20T02:09:24;100498.16;;;19.31
41654;BMP280;30790;52.030;7.110;2022-11-20T02:11:50;100501.47;;;19.33
41654;BMP280;30790;52.030;7.110;2022-11-20T02:14:16;100489.31;;;19.24
41654;BMP280;30790;52.030;7.110;2022-11-20T02:16:45;100494.13;;;19.33
41654;BMP280;30790;52.030;7.110;2022-11-20T02:19:30;100495.19;;;19.32
41654;BMP280;30790;52.030;7.110;2022-11-20T02:22:14;100491.97;;;19.35
41654;BMP280;30790;52.030;7.110;2022-11-20T02:24:44;100491.56;;;19.27
41654;BMP280;30790;52.030;7.110;2022-11-20T02:27:13;100490.81;;;19.31
41654;BMP280;30790;52.030;7.110;2022-11-20T02:29:47;100482.81;;;19.25
41654;BMP280;30790;52.030;7.110;2022-11-20T02:32:25;100479.34;;;19.29
41654;BMP280;30790;52.030;7.110;2022-11-20T02:34:50;100478.69;;;19.22
41654;BMP280;30790;52.030;7.110;2022-11-20T02:37:16;100486.34;;;19.25
41654;BMP280;30790;52.030;7.110;2022-11-20T02:39:44;100482.66;;;19.31
41654;BMP280;30790;52.030;7.110;2022-11-20T02:42:11;100481.41;;;19.22
41654;BMP280;30790;52.030;7.110;2022-11-20T02:44:36;100483.06;;;19.23
41654;BMP280;30790;52.030;7.110;2022-11-20T02:47:02;100488.50;;;19.23
41654;BMP280;30790;52.030;7.110;2022-11-20T02:49:27;100483.31;;;19.22
41654;BMP280;30790;52.030;7.110;2022-11-20T02:51:52;100473.25;;;19.22
41654;BMP280;30790;52.030;7.110;2022-11-20T02:54:18;100464.38;;;19.15
41654;BMP280;30790;52.030;7.110;2022-11-20T02:56:43;100467.47;;;19.19
41654;BMP280;30790;52.030;7.110;2022-11-20T02:59:08;100472.09;;;19.18
41654;BMP280;30790;52.030;7.110;2022-11-20T03:01:34;100457.03;;;19.15
41654;BMP280;30790;52.030;7.110;2022-11-20T03:03:59;100460.38;;;19.18
41654;BMP280;30790;52.030;7.110;2022-11-20T03:06:24;100455.06;;;19.11
41654;BMP280;30790;52.030;7.110;2022-11-20T03:08:49;100453.63;;;19.20
41654;BMP280;30790;52.030;7.110;2022-11-20T03:11:15;100462.25;;;19.17
41654;BMP280;30790;52.030;7.110;2022-11-20T03:13:40;100452.91;;;19.13
41654;BMP280;30790;52.030;7.110;2022-11-20T03:16:17;100455.97;;;19.17
41654;BMP280;30790;52.030;7.110;2022-11-20T03:18:43;100458.38;;;19.13
41654;BMP280;30790;52.030;7.110;2022-11-20T03:21:09;100452.09;;;19.12
41654;BMP280;30790;52.030;7.110;2022-11-20T03:23:35;100452.44;;;19.16
41654;BMP280;30790;52.030;7.110;2022-11-20T03:26:13;100454.56;;;19.14
41654;BMP280;30790;52.030;7.110;2022-11-20T03:28:39;100450.19;;;19.13
41654;BMP280;30790;52.030;7.110;2022-11-20T03:31:07;100454.56;;;19.14
41654;BMP280;30790;52.030;7.110;2022-11-20T03:33:32;100439.47;;;19.06
41654;BMP280;30790;52.030;7.110;2022-11-20T03:36:02;100435.09;;;19.05
41654;BMP280;30790;52.030;7.110;2022-11-20T03:38:29;100437.66;;;19.12
41654;BMP280;30790;52.030;7.110;2022-11-20T03:41:01;100436.00;;;19.11
41654;BMP280;30790;52.030;7.110;2022-11-20T03:43:27;100444.19;;;19.11
41654;BMP280;30790;52.030;7.110;2022-11-20T03:45:53;100439.13;;;19.03
41654;BMP280;30790;52.030;7.110;2022-11-20T03:48:18;100439.13;;;19.03
41654;BMP280;30790;52.030;7.110;2022-11-20T03:50:43;100442.53;;;19.10
41654;BMP280;30790;52.030;7.110;2022-11-20T03:53:08;100442.19;;;19.06
41654;BMP280;30790;52.030;7.110;2022-11-20T03:55:34;100433.69;;;19.03
41654;BMP280;30790;52.030;7.110;2022-11-20T03:57:59;100421.56;;;18.94
41654;BMP280;30790;52.030;7.110;2022-11-20T04:00:24;100430.88;;;18.98
41654;BMP280;30790;52.030;7.110;2022-11-20T04:02:49;100427.34;;;18.97
41654;BMP280;30790;52.030;7.110;2022-11-20T04:05:15;100431.81;;;19.03
41654;BMP280;30790;52.030;7.110;2022-11-20T04:07:40;100434.78;;;19.02
41654;BMP280;30790;52.030;7.110;2022-11-20T04:10:05;100421.16;;;19.02
41654;BMP280;30790;52.030;7.110;2022-11-20T04:12:32;100411.34;;;19.01
41654;BMP280;30790;52.030;7.110;2022-11-20T04:14:58;100410.28;;;19.02
41654;BMP280;30790;52.030;7.110;2022-11-20T04:17:23;100415.47;;;19.03
41654;BMP280;30790;52.030;7.110;2022-11-20T04:19:48;100422.56;;;19.04
41654;BMP280;30790;52.030;7.110;2022-11-20T04:22:14;100429.41;;;19.07
41654;BMP280;30790;52.030;7.110;2022-11-20T04:24:39;100422.00;;;19.02
41654;BMP280;30790;52.030;7.110;2022-11-20T04:27:04;100420.69;;;19.05
41654;BMP280;30790;52.030;7.110;2022-11-20T04:29:30;100415.31;;;19.10
41654;BMP280;30790;52.030;7.110;2022-11-20T04:31:55;100408.38;;;19.02
41654;BMP280;30790;52.030;7.110;2022-11-20T04:34:20;100410.63;;;19.05
41654;BMP280;30790;52.030;7.110;2022-11-20T04:36:45;100420.75;;;19.10
41654;BMP280;30790;52.030;7.110;2022-11-20T04:39:12;100420.03;;;19.14
41654;BMP280;30790;52.030;7.110;2022-11-20T04:41:38;100420.75;;;19.10
41654;BMP280;30790;52.030;7.110;2022-11-20T04:44:04;100414.25;;;19.11
41654;BMP280;30790;52.030;7.110;2022-11-20T04:46:38;100419.78;;;19.16
41654;BMP280;30790;52.030;7.110;2022-11-20T04:49:04;100412.69;;;19.15
41654;BMP280;30790;52.030;7.110;2022-11-20T04:51:31;100425.00;;;19.18
41654;BMP280;30790;52.030;7.110;2022-11-20T04:53:56;100420.75;;;19.10
41654;BMP280;30790;52.030;7.110;2022-11-20T04:56:21;100427.13;;;19.15
41654;BMP280;30790;52.030;7.110;2022-11-20T04:58:46;100429.00;;;19.15
41654;BMP280;30790;52.030;7.110;2022-11-20T05:01:16;100428.56;;;19.18
41654;BMP280;30790;52.030;7.110;2022-11-20T05:03:43;100436.47;;;19.20
41654;BMP280;30790;52.030;7.110;2022-11-20T05:06:14;100429.38;;;19.19
41654;BMP280;30790;52.030;7.110;2022-11-20T05:08:40;100426.88;;;19.17
41654;BMP280;30790;52.030;7.110;2022-11-20T05:11:08;100429.38;;;19.19
41654;BMP280;30790;52.030;7.110;2022-11-20T05:13:33;100423.44;;;19.22
41654;BMP280;30790;52.030;7.110;2022-11-20T05:16:08;100413.50;;;19.15
41654;BMP280;30790;52.030;7.110;2022-11-20T05:18:34;100422.63;;;19.21
41654;BMP280;30790;52.030;7.110;2022-11-20T05:21:00;100420.47;;;19.23
41654;BMP280;30790;52.030;7.110;2022-11-20T05:23:26;100426.97;;;19.22
41654;BMP280;30790;52.030;7.110;2022-11-20T05:25:53;100416.94;;;19.23
41654;BMP280;30790;52.030;7.110;2022-11-20T05:28:19;100413.88;;;19.19
41654;BMP280;30790;52.030;7.110;2022-11-20T05:30:44;100408.69;;;19.18
41654;BMP280;30790;52.030;7.110;2022-11-20T05:33:10;100404.06;;;19.18
41654;BMP280;30790;52.030;7.110;2022-11-20T05:35:35;100407.13;;;19.22
41654;BMP280;30790;52.030;7.110;2022-11-20T05:38:00;100407.00;;;19.17
41654;BMP280;30790;52.030;7.110;2022-11-20T05:40:25;100402.06;;;19.13
41654;BMP280;30790;52.030;7.110;2022-11-20T05:42:51;100412.69;;;19.15
41654;BMP280;30790;52.030;7.110;2022-11-20T05:45:16;100409.25;;;19.20
41654;BMP280;30790;52.030;7.110;2022-11-20T05:47:41;100417.06;;;19.16
41654;BMP280;30790;52.030;7.110;2022-11-20T05:50:07;100408.91;;;19.16
41654;BMP280;30790;52.030;7.110;2022-11-20T05:52:32;100401.22;;;19.13
41654;BMP280;30790;52.030;7.110;2022-11-20T05:54:57;100387.38;;;19.14
41654;BMP280;30790;52.030;7.110;2022-11-20T05:57:22;100404.78;;;19.13
41654;BMP280;30790;52.030;7.110;2022-11-20T05:59:48;100396.13;;;19.17
41654;BMP280;30790;52.030;7.110;2022-11-20T06:02:13;100405.59;;;19.14
41654;BMP280;30790;52.030;7.110;2022-11-20T06:04:38;100398.75;;;19.11
41654;BMP280;30790;52.030;7.110;2022-11-20T06:07:07;100412.69;;;19.15
41654;BMP280;30790;52.030;7.110;2022-11-20T06:09:33;100414.25;;;19.11
41654;BMP280;30790;52.030;7.110;2022-11-20T06:11:58;100408.81;;;19.11
41654;BMP280;30790;52.030;7.110;2022-11-20T06:14:23;100409.31;;;19.08
41654;BMP280;30790;52.030;7.110;2022-11-20T06:16:48;100419.69;;;19.11
41654;BMP280;30790;52.030;7.110;2022-11-20T06:19:14;100425.97;;;19.11
41654;BMP280;30790;52.030;7.110;2022-11-20T06:21:40;100431.97;;;19.13
41654;BMP280;30790;52.030;7.110;2022-11-20T06:24:05;100435.78;;;19.12
41654;BMP280;30790;52.030;7.110;2022-11-20T06:26:31;100432.81;;;19.14
41654;BMP280;30790;52.030;7.110;2022-11-20T06:28:56;100428.75;;;19.17
41654;BMP280;30790;52.030;7.110;2022-11-20T06:31:24;100420.16;;;19.36
41654;BMP280;30790;52.030;7.110;2022-11-20T06:33:50;100426.94;;;19.51
41654;BMP280;30790;52.030;7.110;2022-11-20T06:36:17;100421.50;;;19.67
41654;BMP280;30790;52.030;7.110;2022-11-20T06:38:43;100419.28;;;19.81
41654;BMP280;30790;52.030;7.110;2022-11-20T06:41:13;100422.06;;;19.86
41654;BMP280;30790;52.030;7.110;2022-11-20T06:43:39;100414.72;;;19.87
41654;BMP280;30790;52.030;7.110;2022-11-20T06:46:04;100419.97;;;19.93
41654;BMP280;30790;52.030;7.110;2022-11-20T06:48:30;100422.31;;;20.01
41654;BMP280;30790;52.030;7.110;2022-11-20T06:50:56;100429.84;;;20.16
41654;BMP280;30790;52.030;7.110;2022-11-20T06:53:22;100427.59;;;20.30
41654;BMP280;30790;52.030;7.110;2022-11-20T06:55:48;100426.34;;;20.37
41654;BMP280;30790;52.030;7.110;2022-11-20T06:58:15;100422.38;;;20.45
41654;BMP280;30790;52.030;7.110;2022-11-20T07:00:40;100419.06;;;20.43
41654;BMP280;30790;52.030;7.110;2022-11-20T07:03:07;100418.34;;;20.53
41654;BMP280;30790;52.030;7.110;2022-11-20T07:05:34;100417.53;;;20.52
41654;BMP280;30790;52.030;7.110;2022-11-20T07:07:59;100428.28;;;20.59
41654;BMP280;30790;52.030;7.110;2022-11-20T07:10:25;100424.72;;;20.58
41654;BMP280;30790;52.030;7.110;2022-11-20T07:12:51;100425.91;;;20.67
41654;BMP280;30790;52.030;7.110;2022-11-20T07:15:18;100422.63;;;20.65
41654;BMP280;30790;52.030;7.110;2022-11-20T07:17:43;100418.00;;;20.66
41654;BMP280;30790;52.030;7.110;2022-11-20T07:20:09;100424.84;;;20.68
41654;BMP280;30790;52.030;7.110;2022-11-20T07:22:34;100431.88;;;20.64
41654;BMP280;30790;52.030;7.110;2022-11-20T07:24:59;100430.25;;;20.63
41654;BMP280;30790;52.030;7.110;2022-11-20T07:27:25;100425.81;;;20.57
41654;BMP280;30790;52.030;7.110;2022-11-20T07:29:50;100412.75;;;20.59
41654;BMP280;30790;52.030;7.110;2022-11-20T07:32:16;100413.41;;;20.50
41654;BMP280;30790;52.030;7.110;2022-11-20T07:34:41;100408.22;;;20.48
41654;BMP280;30790;52.030;7.110;2022-11-20T07:37:06;100420.53;;;20.51
41654;BMP280;30790;52.030;7.110;2022-11-20T07:39:31;100413.09;;;20.46
41654;BMP280;30790;52.030;7.110;2022-11-20T07:41:57;100415.53;;;20.43
41654;BMP280;30790;52.030;7.110;2022-11-20T07:44:22;100418.16;;;20.37
41654;BMP280;30790;52.030;7.110;2022-11-20T07:46:47;100414.59;;;20.37
41654;BMP280;30790;52.030;7.110;2022-11-20T07:49:12;100421.06;;;20.31
41654;BMP280;30790;52.030;7.110;2022-11-20T07:51:38;100410.69;;;20.28
41654;BMP280;30790;52.030;7.110;2022-11-20T07:54:03;100420.00;;;20.32
41654;BMP280;30790;52.030;7.110;2022-11-20T07:56:28;100413.47;;;20.33
41654;BMP280;30790;52.030;7.110;2022-11-20T07:58:54;100406.06;;;20.28
41654;BMP280;30790;52.030;7.110;2022-11-20T08:01:19;100405.13;;;20.23
41654;BMP280;30790;52.030;7.110;2022-11-20T08:03:44;100403.22;;;20.23
41654;BMP280;30790;52.030;7.110;2022-11-20T08:06:09;100415.09;;;18.43
41654;BMP280;30790;52.030;7.110;2022-11-20T08:08:35;100411.84;;;13.67
41654;BMP280;30790;52.030;7.110;2022-11-20T08:11:00;100407.50;;;13.53
41654;BMP280;30790;52.030;7.110;2022-11-20T08:13:44;100408.53;;;15.26
41654;BMP280;30790;52.030;7.110;2022-11-20T08:16:28;100401.22;;;17.16
41654;BMP280;30790;52.030;7.110;2022-11-20T08:18:54;100405.25;;;17.90
41654;BMP280;30790;52.030;7.110;2022-11-20T08:21:19;100400.81;;;18.24
41654;BMP280;30790;52.030;7.110;2022-11-20T08:23:44;100403.84;;;18.63
41654;BMP280;30790;52.030;7.110;2022-11-20T08:26:09;100406.34;;;19.09
41654;BMP280;30790;52.030;7.110;2022-11-20T08:28:35;100395.66;;;19.36
41654;BMP280;30790;52.030;7.110;2022-11-20T08:31:01;100401.97;;;19.54
41654;BMP280;30790;52.030;7.110;2022-11-20T08:33:27;100399.97;;;19.66
41654;BMP280;30790;52.030;7.110;2022-11-20T08:35:53;100397.56;;;19.69
41654;BMP280;30790;52.030;7.110;2022-11-20T08:38:18;100396.47;;;19.87
41654;BMP280;30790;52.030;7.110;2022-11-20T08:40:43;100394.56;;;20.04
41654;BMP280;30790;52.030;7.110;2022-11-20T08:43:31;100394.69;;;20.15
41654;BMP280;30790;52.030;7.110;2022-11-20T08:45:57;100391.50;;;20.23
41654;BMP280;30790;52.030;7.110;2022-11-20T08:48:22;100382.59;;;20.27
41654;BMP280;30790;52.030;7.110;2022-11-20T08:50:48;100385.19;;;20.39
41654;BMP280;30790;52.030;7.110;2022-11-20T08:53:13;100386.91;;;20.45
41654;BMP280;30790;52.030;7.110;2022-11-20T08:55:38;100397.38;;;20.53
41654;BMP280;30790;52.030;7.110;2022-11-20T08:58:05;100402.44;;;20.66
41654;BMP280;30790;52.030;7.110;2022-11-20T09:00:31;100396.53;;;20.75
41654;BMP280;30790;52.030;7.110;2022-11-20T09:02:57;100401.41;;;20.73
41654;BMP280;30790;52.030;7.110;2022-11-20T09:05:23;100398.44;;;20.74
41654;BMP280;30790;52.030;7.110;2022-11-20T09:07:48;100390.50;;;20.73
41654;BMP280;30790;52.030;7.110;2022-11-20T09:10:14;100395.44;;;20.76
41654;BMP280;30790;52.030;7.110;2022-11-20T09:12:39;100395.84;;;20.84
41654;BMP280;30790;52.030;7.110;2022-11-20T09:15:05;100399.22;;;20.96
41654;BMP280;30790;52.030;7.110;2022-11-20T09:17:30;100379.78;;;20.88
41654;BMP280;30790;52.030;7.110;2022-11-20T09:19:55;100376.00;;;20.94
41654;BMP280;30790;52.030;7.110;2022-11-20T09:22:20;100366.66;;;20.85
41654;BMP280;30790;52.030;7.110;2022-11-20T09:24:46;100369.78;;;20.72
41654;BMP280;30790;52.030;7.110;2022-11-20T09:27:11;100368.28;;;20.86
41654;BMP280;30790;52.030;7.110;2022-11-20T09:29:36;100365.09;;;20.94
41654;BMP280;30790;52.030;7.110;2022-11-20T09:32:01;100357.78;;;20.73
41654;BMP280;30790;52.030;7.110;2022-11-20T09:34:27;100344.31;;;20.61
41654;BMP280;30790;52.030;7.110;2022-11-20T09:36:52;100356.59;;;20.63
41654;BMP280;30790;52.030;7.110;2022-11-20T09:39:17;100358.72;;;20.56
41654;BMP280;30790;52.030;7.110;2022-11-20T09:47:10;100346.34;;;20.49
41654;BMP280;30790;52.030;7.110;2022-11-20T09:54:49;100358.25;;;20.43
41654;BMP280;30790;52.030;7.110;2022-11-20T09:57:19;100357.44;;;20.42
41654;BMP280;30790;52.030;7.110;2022-11-20T09:59:50;100354.63;;;20.37
41654;BMP280;30790;52.030;7.110;2022-11-20T10:02:25;100358.38;;;20.31
41654;BMP280;30790;52.030;7.110;2022-11-20T10:05:05;100352.84;;;20.26
41654;BMP280;30790;52.030;7.110;2022-11-20T10:07:47;100340.28;;;20.25
41654;BMP280;30790;52.030;7.110;2022-11-20T10:10:22;100339.47;;;20.24
41654;BMP280;30790;52.030;7.110;2022-11-20T10:13:27;100344.09;;;20.24
41654;BMP280;30790;52.030;7.110;2022-11-20T10:19:34;100332.56;;;20.17
41654;BMP280;30790;52.030;7.110;2022-11-20T10:24:56;100348.94;;;20.17
41654;BMP280;30790;52.030;7.110;2022-11-20T10:30:12;100342.84;;;20.10
41654;BMP280;30790;52.030;7.110;2022-11-20T10:32:41;100340.13;;;20.10
41654;BMP280;30790;52.030;7.110;2022-11-20T10:35:14;100339.56;;;20.08
41654;BMP280;30790;52.030;7.110;2022-11-20T10:37:43;100341.03;;;19.98
41654;BMP280;30790;52.030;7.110;2022-11-20T10:40:26;100341.72;;;20.05
41654;BMP280;30790;52.030;7.110;2022-11-20T10:42:56;100321.56;;;20.06
41654;BMP280;30790;52.030;7.110;2022-11-20T10:47:54;100312.00;;;20.04
41654;BMP280;30790;52.030;7.110;2022-11-20T10:50:21;100318.00;;;20.06
41654;BMP280;30790;52.030;7.110;2022-11-20T10:55:43;100318.69;;;20.18
41654;BMP280;30790;52.030;7.110;2022-11-20T10:58:14;100317.03;;;20.17
41654;BMP280;30790;52.030;7.110;2022-11-20T11:00:41;100316.72;;;20.14
41654;BMP280;30790;52.030;7.110;2022-11-20T11:03:24;100321.72;;;20.22
41654;BMP280;30790;52.030;7.110;2022-11-20T11:05:55;100311.34;;;20.19
41654;BMP280;30790;52.030;7.110;2022-11-20T11:08:26;100311.38;;;20.24
41654;BMP280;30790;52.030;7.110;2022-11-20T11:10:55;100300.44;;;20.19
41654;BMP280;30790;52.030;7.110;2022-11-20T11:13:23;100289.78;;;20.17
41654;BMP280;30790;52.030;7.110;2022-11-20T11:15:49;100290.88;;;20.16
41654;BMP280;30790;52.030;7.110;2022-11-20T11:18:26;100288.16;;;20.16
41654;BMP280;30790;52.030;7.110;2022-11-20T11:20:53;100287.59;;;20.14
41654;BMP280;30790;52.030;7.110;2022-11-20T11:23:30;100289.75;;;20.12
41654;BMP280;30790;52.030;7.110;2022-11-20T11:25:58;100295.44;;;20.11
41654;BMP280;30790;52.030;7.110;2022-11-20T11:28:24;100290.81;;;20.11
41654;BMP280;30790;52.030;7.110;2022-11-20T11:30:51;100286.19;;;20.12
41654;BMP280;30790;52.030;7.110;2022-11-20T11:33:37;100287.00;;;20.12
41654;BMP280;30790;52.030;7.110;2022-11-20T11:36:03;100283.72;;;20.10
41654;BMP280;30790;52.030;7.110;2022-11-20T11:41:01;100272.94;;;19.98
41654;BMP280;30790;52.030;7.110;2022-11-20T11:43:31;100274.47;;;19.89
41654;BMP280;30790;52.030;7.110;2022-11-20T11:46:34;100271.44;;;19.86
41654;BMP280;30790;52.030;7.110;2022-11-20T11:52:14;100262.56;;;19.73
41654;BMP280;30790;52.030;7.110;2022-11-20T12:00:08;100248.63;;;19.70
41654;BMP280;30790;52.030;7.110;2022-11-20T12:02:37;100249.19;;;19.72
41654;BMP280;30790;52.030;7.110;2022-11-20T12:05:15;100241.59;;;19.74
41654;BMP280;30790;52.030;7.110;2022-11-20T12:07:55;100233.69;;;19.72
41654;BMP280;30790;52.030;7.110;2022-11-20T12:11:37;100237.03;;;19.80
41654;BMP280;30790;52.030;7.110;2022-11-20T12:13:40;100236.72;;;19.76
41654;BMP280;30790;52.030;7.110;2022-11-20T12:16:12;100233.25;;;19.81
41654;BMP280;30790;52.030;7.110;2022-11-20T12:18:39;100227.47;;;19.77
41654;BMP280;30790;52.030;7.110;2022-11-20T12:21:18;100229.91;;;19.73
41654;BMP280;30790;52.030;7.110;2022-11-20T12:29:39;100205.00;;;19.65
41654;BMP280;30790;52.030;7.110;2022-11-20T12:34:51;100203.69;;;19.51
41654;BMP280;30790;52.030;7.110;2022-11-20T12:37:42;100201.53;;;19.53
41654;BMP280;30790;52.030;7.110;2022-11-20T12:54:22;100187.06;;;19.69
41654;BMP280;30790;52.030;7.110;2022-11-20T12:59:28;100173.44;;;19.69
41654;BMP280;30790;52.030;7.110;2022-11-20T13:07:34;100146.84;;;19.32
41654;BMP280;30790;52.030;7.110;2022-11-20T13:10:00;100135.31;;;19.25
41654;BMP280;30790;52.030;7.110;2022-11-20T13:17:51;100124.28;;;19.15
41654;BMP280;30790;52.030;7.110;2022-11-20T13:20:20;100119.50;;;19.22
41654;BMP280;30790;52.030;7.110;2022-11-20T13:22:47;100112.41;;;19.21
41654;BMP280;30790;52.030;7.110;2022-11-20T13:25:28;100113.91;;;19.12
41654;BMP280;30790;52.030;7.110;2022-11-20T13:27:55;100097.78;;;19.05
41654;BMP280;30790;52.030;7.110;2022-11-20T13:30:23;100097.84;;;19.32
41654;BMP280;30790;52.030;7.110;2022-11-20T13:32:50;100104.22;;;19.43
41654;BMP280;30790;52.030;7.110;2022-11-20T13:35:30;100087.59;;;19.39
41654;BMP280;30790;52.030;7.110;2022-11-20T13:38:05;100087.63;;;19.44
41654;BMP280;30790;52.030;7.110;2022-11-20T13:40:33;100081.88;;;19.41
41654;BMP280;30790;52.030;7.110;2022-11-20T13:43:22;100086.81;;;19.44
41654;BMP280;30790;52.030;7.110;2022-11-20T13:46:03;100087.91;;;19.43
41654;BMP280;30790;52.030;7.110;2022-11-20T13:48:39;100086.81;;;19.44
41654;BMP280;30790;52.030;7.110;2022-11-20T13:54:02;100077.84;;;19.43
41654;BMP280;30790;52.030;7.110;2022-11-20T14:02:17;100071.25;;;19.39
41654;BMP280;30790;52.030;7.110;2022-11-20T14:04:46;100077.78;;;19.38
41654;BMP280;30790;52.030;7.110;2022-11-20T14:07:14;100061.19;;;19.40
41654;BMP280;30790;52.030;7.110;2022-11-20T14:09:52;100059.56;;;19.39
41654;BMP280;30790;52.030;7.110;2022-11-20T14:12:20;100068.53;;;19.39
41654;BMP280;30790;52.030;7.110;2022-11-20T14:14:51;100072.59;;;19.37
41654;BMP280;30790;52.030;7.110;2022-11-20T14:17:21;100057.66;;;19.39
41654;BMP280;30790;52.030;7.110;2022-11-20T14:19:49;100069.09;;;19.41
41654;BMP280;30790;52.030;7.110;2022-11-20T14:22:18;100050.56;;;19.38
41654;BMP280;30790;52.030;7.110;2022-11-20T14:24:44;100046.75;;;19.39
41654;BMP280;30790;52.030;7.110;2022-11-20T14:27:18;100047.84;;;19.38
41654;BMP280;30790;52.030;7.110;2022-11-20T14:29:46;100043.22;;;19.39
41654;BMP280;30790;52.030;7.110;2022-11-20T14:32:15;100033.97;;;19.40
41654;BMP280;30790;52.030;7.110;2022-11-20T14:34:43;100027.16;;;19.37
41654;BMP280;30790;52.030;7.110;2022-11-20T14:37:18;100024.69;;;19.36
41654;BMP280;30790;52.030;7.110;2022-11-20T14:39:49;100012.41;;;19.33
41654;BMP280;30790;52.030;7.110;2022-11-20T14:42:19;100017.13;;;19.43
41654;BMP280;30790;52.030;7.110;2022-11-20T14:44:45;99995.56;;;19.36
41654;BMP280;30790;52.030;7.110;2022-11-20T14:47:13;100006.84;;;19.45
41654;BMP280;30790;52.030;7.110;2022-11-20T14:49:40;99996.13;;;19.38
41654;BMP280;30790;52.030;7.110;2022-11-20T14:52:17;100005.41;;;19.42
41654;BMP280;30790;52.030;7.110;2022-11-20T14:54:48;99991.88;;;19.48
41654;BMP280;30790;52.030;7.110;2022-11-20T14:57:40;99985.63;;;19.47
41654;BMP280;30790;52.030;7.110;2022-11-20T15:02:45;99975.03;;;19.51
41654;BMP280;30790;52.030;7.110;2022-11-20T15:05:11;99971.75;;;19.49
41654;BMP280;30790;52.030;7.110;2022-11-20T15:07:43;99971.19;;;19.47
41654;BMP280;30790;52.030;7.110;2022-11-20T15:10:27;99965.16;;;19.44
41654;BMP280;30790;52.030;7.110;2022-11-20T15:13:00;99969.78;;;19.44
41654;BMP280;30790;52.030;7.110;2022-11-20T15:17:58;99966.31;;;19.49
41654;BMP280;30790;52.030;7.110;2022-11-20T15:20:26;99948.25;;;19.42
41654;BMP280;30790;52.030;7.110;2022-11-20T15:22:52;99942.00;;;19.42
41654;BMP280;30790;52.030;7.110;2022-11-20T15:25:18;99932.50;;;19.44
41654;BMP280;30790;52.030;7.110;2022-11-20T15:27:44;99920.50;;;19.40
41654;BMP280;30790;52.030;7.110;2022-11-20T15:30:19;99925.13;;;19.40